Latest Weather Observations for Larapuna (Eddystone Point)

IDT60801

Issued at 8:05 pm EST Saturday 30 August 2014 (issued every 30 minutes, with the page automatically refreshed every 10 minutes)

About weather observations | Map of weather stations | Latest weather observations for TAS | Other Formats
Station Details ID: 092045 Name: LARAPUNA (EDDYSTONE POINT) Lat: -40.99 Lon: 148.35 Height: 19.7 m
Data from the previous 72 hours. | See also: Recent months at Larapuna (Eddystone Point)
Date/Time
EST
Temp
°C
App
Temp
°C
Dew
Point
Rel
Hum
%
Delta-T
°C
Wind Press
QNH
hPa
Press
MSL
hPa
Rain
since 9 am
mm
Dir
 
Spd
km/h
Gust
km/h
Spd
kts
Gust
kts
30/08:00pm 12.8 9.0 8.9 77 1.9 NNE 19 22 10 12 1024.6 1024.7 0.0
30/07:30pm 12.8 8.7 8.7 76 2.0 NE 20 22 11 12 1024.7 1024.8 0.0
30/07:00pm 13.1 9.0 8.8 75 2.1 NNE 20 22 11 12 1024.9 1025.0 0.0
30/06:30pm 12.8 9.6 8.3 74 2.2 NNE 15 17 8 9 1025.2 1025.3 0.0
30/06:00pm 12.9 9.7 8.4 74 2.2 NNE 15 17 8 9 1025.2 1025.3 0.0
30/05:30pm 13.2 10.0 8.3 72 2.4 NNE 15 17 8 9 1025.2 1025.3 0.0
30/05:00pm 13.7 11.2 8.3 70 2.7 NNE 11 15 6 8 1025.2 1025.3 0.0
30/04:30pm 14.3 11.5 8.7 69 2.8 NNE 13 17 7 9 1025.4 1025.5 0.0
30/04:00pm 14.6 11.6 7.9 64 3.3 NE 13 15 7 8 1025.5 1025.6 0.0
30/03:30pm 15.4 12.1 7.9 61 3.8 NE 15 17 8 9 1025.7 1025.8 0.0
30/03:00pm 16.2 13.7 8.2 59 4.0 NE 11 13 6 7 1025.9 1026.0 0.0
30/02:30pm 16.1 14.0 8.1 59 4.0 NE 9 11 5 6 1026.1 1026.2 0.0
30/02:00pm 15.5 12.9 7.8 60 3.8 NE 11 17 6 9 1026.3 1026.4 0.0
30/01:30pm 15.5 12.7 8.5 63 3.6 NNE 13 15 7 8 1026.5 1026.6 0.0
30/01:00pm 15.5 11.8 8.0 61 3.7 NNE 17 20 9 11 1026.9 1027.0 0.0
30/12:30pm 14.9 11.2 7.9 63 3.5 NNE 17 20 9 11 1027.3 1027.4 0.0
30/12:00pm 15.3 12.4 8.1 62 3.6 NNE 13 17 7 9 1027.8 1027.9 0.0
30/11:30am 15.8 12.6 8.5 62 3.7 NE 15 17 8 9 1028.3 1028.4 0.0
30/11:00am 16.4 13.7 9.1 62 3.7 NE 13 15 7 8 1028.8 1028.9 0.0
30/10:30am 16.1 13.5 9.3 64 3.5 NE 13 15 7 8 1029.0 1029.1 0.0
30/10:00am 15.7 12.8 9.6 67 3.1 NE 15 17 8 9 1029.3 1029.4 0.0
30/09:30am 15.4 12.8 9.5 68 3.1 NE 13 17 7 9 1029.5 1029.6 0.0
30/09:00am 14.9 12.0 9.5 70 2.8 ENE 15 17 8 9 1029.5 1029.6 0.4
30/08:30am 14.3 11.4 9.5 73 2.5 ENE 15 19 8 10 1029.7 1029.8 0.4
30/08:00am 13.9 11.4 9.7 76 2.1 ENE 13 17 7 9 1029.9 1030.0 0.4
30/07:30am 12.8 9.4 9.3 79 1.8 ENE 17 20 9 11 1029.7 1029.8 0.4
30/07:00am 12.1 8.7 9.3 83 1.4 ENE 17 20 9 11 1029.5 1029.6 0.4
30/06:30am 11.7 7.9 8.9 83 1.4 ENE 19 20 10 11 1029.3 1029.4 0.4
30/06:00am 11.9 8.5 9.1 83 1.4 ENE 17 20 9 11 1029.2 1029.3 0.4
30/05:30am 11.9 8.2 9.3 84 1.3 ENE 19 20 10 11 1029.2 1029.3 0.4
30/05:00am 12.2 8.5 9.6 84 1.3 ENE 19 20 10 11 1029.2 1029.3 0.4
30/04:30am 12.5 9.6 9.7 83 1.4 NNE 15 17 8 9 1029.3 1029.4 0.4
30/04:00am 12.3 9.0 9.7 84 1.3 NE 17 19 9 10 1029.3 1029.4 0.4
30/03:30am 12.5 9.7 10.0 85 1.3 NE 15 17 8 9 1029.4 1029.5 0.4
30/03:00am 12.5 9.8 10.4 87 1.1 NE 15 17 8 9 1029.4 1029.5 0.4
30/02:30am 12.4 9.4 10.6 89 0.9 NE 17 20 9 11 1029.5 1029.6 0.4
30/02:00am 12.5 9.7 11.2 92 0.7 NE 17 19 9 10 1029.7 1029.8 0.4
30/01:30am 12.4 9.2 11.3 93 0.6 NE 19 20 10 11 1029.9 1030.0 0.4
30/01:00am 12.0 8.8 11.1 94 0.5 NE 19 20 10 11 1030.0 1030.1 0.4
30/12:30am 11.7 10.6 10.8 94 0.5 S 7 9 4 5 1030.1 1030.2 0.4
30/12:00am 11.4 10.3 10.5 94 0.5 S 7 9 4 5 1030.1 1030.2 0.2
 
Date/Time
EST
Temp
°C
App
Temp
°C
Dew
Point
Rel
Hum
%
Delta-T
°C
Wind Press
QNH
hPa
Press
MSL
hPa
Rain
since 9 am
mm
Dir
 
Spd
km/h
Gust
km/h
Spd
kts
Gust
kts
29/11:30pm 11.4 10.5 10.5 94 0.5 S 6 7 3 4 1030.1 1030.2 0.0
29/11:00pm 11.3 10.1 10.4 94 0.5 S 7 9 4 5 1030.2 1030.3 0.0
29/10:30pm 11.2 9.9 10.1 93 0.6 S 7 11 4 6 1030.2 1030.3 0.0
29/10:00pm 11.2 9.9 10.1 93 0.6 SSW 7 9 4 5 1030.3 1030.4 0.0
29/09:30pm 11.0 9.3 9.8 92 0.6 SSW 9 9 5 5 1030.4 1030.5 0.0
29/09:00pm 11.6 11.7 10.3 92 0.7 CALM 0 0 0 0 1030.2 1030.3 0.0
29/08:30pm 11.8 11.6 10.4 91 0.7 S 2 6 1 3 1030.1 1030.2 0.0
29/08:00pm 12.6 11.7 11.2 91 0.7 N 7 9 4 5 1030.1 1030.2 0.0
29/07:30pm 12.7 11.4 11.1 90 0.8 NNE 9 11 5 6 1029.8 1029.9 0.0
29/07:00pm 12.6 10.8 11.0 90 0.8 NE 11 13 6 7 1029.8 1029.9 0.0
29/06:30pm 12.8 10.7 11.0 89 0.9 ENE 13 15 7 8 1029.6 1029.7 0.0
29/06:00pm 12.8 10.6 10.9 88 1.0 ENE 13 15 7 8 1029.3 1029.4 0.0
29/05:30pm 13.1 10.1 10.6 85 1.3 ENE 17 19 9 10 1029.1 1029.2 0.0
29/05:00pm 13.8 10.8 10.8 82 1.6 ENE 17 20 9 11 1029.1 1029.2 0.0
29/04:30pm 14.1 10.7 10.5 79 1.9 E 19 22 10 12 1029.1 1029.2 0.0
29/04:00pm 14.8 11.8 10.8 77 2.1 ENE 17 20 9 11 1029.1 1029.2 0.0
29/03:30pm 15.6 13.1 11.2 75 2.4 ENE 15 17 8 9 1028.8 1028.9 0.0
29/03:00pm 15.1 13.7 10.9 76 2.2 E 9 13 5 7 1029.0 1029.1 0.0
29/02:30pm 16.3 14.5 11.0 71 2.8 E 11 15 6 8 1029.1 1029.2 0.0
29/02:00pm 15.5 14.4 10.5 72 2.6 E 7 11 4 6 1029.2 1029.3 0.0
29/01:30pm 15.4 14.5 10.8 74 2.4 E 6 9 3 5 1029.2 1029.3 0.0
29/01:00pm 15.4 14.0 10.8 74 2.4 E 9 11 5 6 1029.3 1029.4 0.0
29/12:30pm 15.2 12.7 11.0 76 2.2 E 15 20 8 11 1029.5 1029.6 0.0
29/12:00pm 15.8 14.0 11.0 73 2.5 E 11 17 6 9 1029.7 1029.8 0.0
29/11:30am 15.1 12.8 10.3 73 2.5 ESE 13 15 7 8 1030.0 1030.1 0.0
29/11:00am 14.5 12.5 10.1 75 2.3 SE 11 15 6 8 1030.2 1030.3 0.0
29/10:30am 15.4 14.0 12.2 81 1.7 SSE 11 13 6 7 1030.1 1030.2 0.0
29/10:00am 14.0 12.8 11.5 85 1.3 SSW 9 11 5 6 1030.2 1030.3 0.0
29/09:30am 13.0 11.6 10.9 87 1.1 S 9 11 5 6 1030.4 1030.5 0.0
29/09:00am 12.2 10.7 10.6 90 0.8 SSW 9 11 5 6 1030.5 1030.6 0.0
29/08:30am 11.7 9.7 10.3 91 0.7 SSW 11 13 6 7 1030.2 1030.3 0.0
29/08:00am 10.8 8.7 9.6 92 0.6 SW 11 13 6 7 1030.1 1030.2 0.0
29/07:30am 10.0 7.6 8.8 92 0.6 SSW 11 13 6 7 1029.7 1029.8 0.0
29/07:00am 10.0 8.0 8.8 92 0.6 SSW 9 9 5 5 1029.2 1029.3 0.0
29/06:30am 9.9 8.2 8.5 91 0.7 S 7 9 4 5 1029.0 1029.1 0.0
29/06:00am 9.6 8.0 8.2 91 0.7 SSW 6 7 3 4 1028.9 1029.0 0.0
29/05:30am 9.5 7.7 7.9 90 0.8 SW 7 9 4 5 1028.5 1028.6 0.0
29/05:00am 9.0 6.7 7.5 90 0.7 SW 9 11 5 6 1028.7 1028.8 0.0
29/04:30am 9.4 7.2 7.7 89 0.8 SW 9 11 5 6 1028.8 1028.9 0.0
29/04:00am 10.2 8.4 8.1 87 1.0 WSW 7 9 4 5 1028.8 1028.9 0.0
29/03:30am 9.7 8.0 7.6 87 1.0 WSW 6 9 3 5 1028.6 1028.7 0.0
29/03:00am 9.6 7.3 7.4 86 1.0 WSW 9 9 5 5 1028.7 1028.8 0.0
29/02:30am 10.1 7.5 7.7 85 1.2 WNW 11 11 6 6 1028.7 1028.8 0.0
29/02:00am 10.5 8.0 8.1 85 1.2 WNW 11 13 6 7 1028.8 1028.9 0.0
29/01:30am 10.4 7.9 8.2 86 1.1 WNW 11 13 6 7 1029.1 1029.2 0.0
29/01:00am 10.3 7.8 8.2 87 1.0 WNW 11 13 6 7 1029.2 1029.3 0.0
29/12:30am 9.9 7.3 7.8 87 1.0 WNW 11 13 6 7 1029.2 1029.3 0.0
29/12:00am 10.0 7.5 8.1 88 0.9 WNW 11 13 6 7 1029.2 1029.3 0.0
 
Date/Time
EST
Temp
°C
App
Temp
°C
Dew
Point
Rel
Hum
%
Delta-T
°C
Wind Press
QNH
hPa
Press
MSL
hPa
Rain
since 9 am
mm
Dir
 
Spd
km/h
Gust
km/h
Spd
kts
Gust
kts
28/11:30pm 10.4 8.0 8.7 89 0.8 NW 11 11 6 6 1029.1 1029.2 0.0
28/11:00pm 10.5 8.2 8.9 90 0.8 NW 11 11 6 6 1029.2 1029.3 0.0
28/10:30pm 10.8 8.6 9.2 90 0.8 NW 11 11 6 6 1029.3 1029.4 0.0
28/10:00pm 11.2 9.4 9.6 90 0.8 NNW 9 11 5 6 1029.5 1029.6 0.0
28/09:30pm 11.2 9.4 9.6 90 0.8 N 9 11 5 6 1029.3 1029.4 0.0
28/09:00pm 11.3 9.2 9.6 89 0.9 NNW 11 11 6 6 1029.2 1029.3 0.0
28/08:30pm 11.6 9.5 9.7 88 1.0 N 11 11 6 6 1029.2 1029.3 0.0
28/08:00pm 11.8 10.1 9.7 87 1.1 NW 9 11 5 6 1029.3 1029.4 0.0
28/07:30pm 12.5 10.1 10.2 86 1.2 NNW 13 17 7 9 1029.1 1029.2 0.0
28/07:00pm 12.8 9.7 10.3 85 1.3 N 17 20 9 11 1029.2 1029.3 0.0
28/06:30pm 13.0 9.5 10.2 83 1.4 N 19 22 10 12 1029.0 1029.1 0.0
28/06:00pm 13.0 9.5 10.2 83 1.4 N 19 24 10 13 1028.8 1028.9 0.0
28/05:30pm 13.2 9.7 10.2 82 1.6 N 19 24 10 13 1028.6 1028.7 0.0
28/05:00pm 13.5 9.4 10.1 80 1.7 N 22 26 12 14 1028.4 1028.5 0.0
28/04:30pm 13.6 9.9 10.0 79 1.9 N 20 24 11 13 1028.3 1028.4 0.0
28/04:00pm 14.5 10.0 10.1 75 2.3 N 24 28 13 15 1028.4 1028.5 0.0
28/03:30pm 14.4 10.3 10.0 75 2.3 N 22 26 12 14 1028.3 1028.4 0.0
28/03:00pm 13.8 9.5 9.5 75 2.2 N 22 28 12 15 1028.4 1028.5 0.0
28/02:30pm 14.4 10.0 9.0 70 2.7 N 22 30 12 16 1028.4 1028.5 0.0
28/02:00pm 15.3 10.6 9.4 68 3.0 N 24 30 13 16 1028.5 1028.6 0.0
28/01:30pm 15.7 11.1 9.8 68 3.1 N 24 28 13 15 1028.6 1028.7 0.0
28/01:00pm 15.5 11.8 10.1 70 2.8 N 20 26 11 14 1028.9 1029.0 0.0
28/12:30pm 15.7 12.1 10.5 71 2.7 N 20 24 11 13 1029.3 1029.4 0.0
28/12:00pm 15.4 12.3 10.4 72 2.6 N 17 20 9 11 1029.7 1029.8 0.0
28/11:30am 16.1 13.1 10.8 71 2.8 N 17 19 9 10 1030.1 1030.2 0.0
28/11:00am 16.2 13.4 11.2 72 2.7 N 17 20 9 11 1030.3 1030.4 0.0
28/10:30am 15.5 13.2 10.5 72 2.6 N 13 17 7 9 1030.4 1030.5 0.0
28/10:00am 15.2 13.0 10.8 75 2.3 N 13 17 7 9 1030.5 1030.6 0.0
28/09:30am 14.4 12.9 10.6 78 2.0 N 9 13 5 7 1030.6 1030.7 0.0
28/09:00am 13.4 11.9 10.4 82 1.5 NW 9 13 5 7 1030.6 1030.7 0.0
28/08:30am 12.8 11.3 10.5 86 1.2 NW 9 11 5 6 1030.5 - 0.0
28/08:00am 11.5 9.8 9.8 89 0.9 WNW 9 11 5 6 1030.3 1030.4 0.0
28/07:30am 10.2 7.8 8.6 90 0.8 NNW 11 11 6 6 1030.1 - 0.0
28/07:00am 9.4 6.8 7.8 90 0.8 NNW 11 11 6 6 1030.0 1030.1 0.0
28/06:30am 9.7 7.6 8.1 90 0.8 NNW 9 11 5 6 1029.9 - 0.0
28/06:00am 9.6 7.0 7.9 89 0.8 NNW 11 11 6 6 1029.7 1029.8 0.0
28/05:30am 9.8 6.9 8.1 89 0.8 WNW 13 13 7 7 1029.6 - 0.0
28/05:00am 9.4 7.2 7.7 89 0.8 W 9 11 5 6 1029.7 1029.8 0.0
28/04:30am 9.2 7.2 7.3 88 0.9 SSW 7 11 4 6 1029.5 - 0.0
28/04:00am 9.9 6.9 7.8 87 1.0 WNW 13 13 7 7 1029.5 1029.6 0.0
28/03:30am 10.0 7.0 7.8 86 1.1 WNW 13 13 7 7 1029.4 - 0.0
28/03:00am 9.9 6.9 7.7 86 1.0 WNW 13 15 7 8 1029.5 1029.6 0.0
28/02:30am 9.8 6.0 7.6 86 1.1 W 17 17 9 9 1029.7 - 0.0
28/02:00am 10.0 6.6 7.8 86 1.0 WNW 15 17 8 9 1029.8 1029.9 0.0
28/01:30am 9.6 5.8 7.4 86 1.0 W 17 19 9 10 1030.0 - 0.0
28/01:00am 9.6 6.5 7.2 85 1.1 WNW 13 15 7 8 1030.1 1030.2 0.0
28/12:30am 9.9 6.9 7.5 85 1.1 WNW 13 15 7 8 1030.1 - 0.0
28/12:00am 10.0 7.0 7.6 85 1.1 WNW 13 15 7 8 1030.1 1030.2 0.0
 
Date/Time
EST
Temp
°C
App
Temp
°C
Dew
Point
Rel
Hum
%
Delta-T
°C
Wind Press
QNH
hPa
Press
MSL
hPa
Rain
since 9 am
mm
Dir
 
Spd
km/h
Gust
km/h
Spd
kts
Gust
kts
27/11:30pm 9.9 6.9 7.5 85 1.1 NW 13 15 7 8 1030.1 - 0.0
27/11:00pm 9.8 6.8 7.9 88 0.9 NW 13 15 7 8 1030.0 1030.1 0.0
27/10:30pm 10.0 7.9 8.1 88 0.9 NNW 9 11 5 6 1029.9 - 0.0
27/10:00pm 9.7 7.1 7.8 88 0.9 NW 11 13 6 7 1030.1 1030.2 0.0
27/09:30pm 10.6 7.8 8.5 87 1.0 NNW 13 15 7 8 1030.1 - 0.0
27/09:00pm 10.5 8.0 8.4 87 1.0 NNW 11 13 6 7 1030.0 1030.1 0.0
27/08:30pm 10.8 7.7 8.9 88 0.9 NW 15 15 8 8 1029.8 - 0.0

Other Formats:

Comma delimited format used in spreadsheet applications
http://www.bom.gov.au/fwo/IDT60801/IDT60801.94983.axf

JavaScript Object Notation format (JSON) in row-major order
http://www.bom.gov.au/fwo/IDT60801/IDT60801.94983.json